Time;durP1;ratioP1;P1;durP2;ratioP2;P2;SDS_P1;SDS_P2;PMS_P1;PMS_P2;Temp;Humidity;BMP_temperature;BMP_pressure;BME280_temperature;BME280_humidity;BME280_pressure;Samples;Min_cycle;Max_cycle;Signal;HPM_P1;HPM_P2
2022/06/11 00:02:03;;;;;;;5.50;3.38;;;;;;;15.34;100.00;101115.00;5053854;28;20025;-73
2022/06/11 00:04:39;;;;;;;6.65;3.70;;;;;;;15.31;100.00;101125.75;5053982;28;20040;-73
2022/06/11 00:07:11;;;;;;;4.78;3.17;;;;;;;15.25;100.00;101126.13;5055166;28;20079;-73
2022/06/11 00:09:37;;;;;;;7.00;3.05;;;;;;;15.15;100.00;101113.50;5054443;28;20479;-72
2022/06/11 00:12:03;;;;;;;5.88;3.60;;;;;;;15.15;100.00;101129.38;5054763;28;20029;-73
2022/06/11 00:14:30;;;;;;;5.47;3.42;;;;;;;15.07;100.00;101121.88;5067985;28;20376;-72
2022/06/11 00:16:57;;;;;;;8.25;4.10;;;;;;;15.06;100.00;101125.47;5069708;28;20033;-73
2022/06/11 00:19:23;;;;;;;6.43;3.65;;;;;;;14.97;100.00;101119.88;5040497;28;20025;-73
2022/06/11 00:21:51;;;;;;;9.50;4.38;;;;;;;14.94;100.00;101120.03;5053946;28;20032;-73
2022/06/11 00:24:17;;;;;;;12.80;3.55;;;;;;;14.93;100.00;101119.19;5067914;28;20111;-73
2022/06/11 00:26:44;;;;;;;6.50;4.00;;;;;;;14.89;100.00;101117.66;5069963;28;20522;-73
2022/06/11 00:29:11;;;;;;;7.32;4.40;;;;;;;14.89;100.00;101122.09;5065415;28;20037;-72
2022/06/11 00:31:37;;;;;;;8.93;4.30;;;;;;;14.76;100.00;101111.34;5055013;28;20032;-72
2022/06/11 00:34:02;;;;;;;6.68;4.78;;;;;;;14.82;100.00;101119.78;5072833;28;20061;-72
2022/06/11 00:36:28;;;;;;;6.63;4.50;;;;;;;14.73;100.00;101111.50;5057911;28;20029;-72
2022/06/11 00:38:54;;;;;;;7.35;3.72;;;;;;;14.62;100.00;101106.81;5086936;28;20100;-72
2022/06/11 00:41:22;;;;;;;6.82;3.78;;;;;;;14.71;100.00;101126.59;5054854;28;20025;-72
2022/06/11 00:43:47;;;;;;;7.40;4.53;;;;;;;14.65;100.00;101124.31;5067407;28;20025;-72
2022/06/11 00:46:47;;;;;;;6.38;4.43;;;;;;;14.65;100.00;101126.94;5066350;28;20036;-73
2022/06/11 00:49:38;;;;;;;6.68;4.40;;;;;;;14.62;100.00;101129.75;5058130;28;20450;-73
2022/06/11 00:52:33;;;;;;;8.65;4.50;;;;;;;14.57;100.00;101126.50;5063011;28;20365;-72
2022/06/11 00:55:10;;;;;;;7.95;4.47;;;;;;;14.54;100.00;101132.81;5066099;28;20082;-72
2022/06/11 00:57:39;;;;;;;8.68;4.80;;;;;;;14.51;100.00;101126.84;5061768;28;20032;-73
2022/06/11 01:00:15;;;;;;;11.65;4.30;;;;;;;14.48;100.00;101124.38;5057961;28;20024;-73
2022/06/11 01:02:42;;;;;;;13.77;4.20;;;;;;;14.22;100.00;101092.25;5062260;28;20422;-73
2022/06/11 01:05:11;;;;;;;9.00;3.90;;;;;;;14.28;100.00;101107.78;5057321;28;20028;-73
2022/06/11 01:08:01;;;;;;;6.90;3.90;;;;;;;14.32;100.00;101126.97;5034711;28;20061;-73
2022/06/11 01:11:09;;;;;;;7.25;4.18;;;;;;;14.18;100.00;101103.06;5052909;28;20087;-73
2022/06/11 01:13:55;;;;;;;6.55;4.30;;;;;;;14.25;100.00;101120.31;5044969;28;20135;-73
2022/06/11 01:16:34;;;;;;;8.20;3.97;;;;;;;14.14;100.00;101114.72;5042964;28;20037;-73
2022/06/11 01:19:19;;;;;;;9.40;4.88;;;;;;;14.18;100.00;101118.91;5050458;28;20032;-73
2022/06/11 01:22:18;;;;;;;6.32;4.43;;;;;;;14.07;100.00;101114.19;5052971;28;20033;-73
2022/06/11 01:24:48;;;;;;;9.90;4.72;;;;;;;13.83;100.00;101081.16;5050793;28;20055;-73
2022/06/11 01:27:31;;;;;;;8.90;5.40;;;;;;;14.03;100.00;101120.59;5071561;28;20020;-72
2022/06/11 01:29:59;;;;;;;7.32;4.20;;;;;;;14.00;100.00;101110.19;5050531;28;20174;-73
2022/06/11 01:32:45;;;;;;;8.50;5.68;;;;;;;13.68;100.00;101060.84;5037223;28;20033;-73
2022/06/11 01:35:52;;;;;;;7.43;4.45;;;;;;;13.94;100.00;101113.16;5061578;28;20035;-73
2022/06/11 01:38:24;;;;;;;6.47;4.20;;;;;;;13.89;100.00;101096.66;5041480;28;20044;-73
2022/06/11 01:41:27;;;;;;;11.70;4.85;;;;;;;13.85;100.00;101100.44;5036489;28;20041;-73
2022/06/11 01:43:57;;;;;;;6.35;4.25;;;;;;;13.81;100.00;101094.44;5056246;28;20099;-73
2022/06/11 01:46:39;;;;;;;7.28;4.47;;;;;;;13.75;100.00;101084.19;5059595;28;20029;-73
2022/06/11 01:49:27;;;;;;;6.70;4.95;;;;;;;13.57;100.00;101074.59;5057786;28;20113;-73
2022/06/11 01:52:11;;;;;;;6.10;4.20;;;;;;;13.63;100.00;101103.31;5071288;28;20033;-73
2022/06/11 01:55:04;;;;;;;7.25;4.65;;;;;;;13.59;100.00;101104.41;5050529;28;20028;-73
2022/06/11 01:57:44;;;;;;;6.28;4.45;;;;;;;13.54;100.00;101095.00;5057552;28;20048;-73
2022/06/11 02:00:23;;;;;;;12.80;5.82;;;;;;;13.58;100.00;101104.50;5051030;28;20029;-73
2022/06/11 02:03:24;;;;;;;7.00;4.45;;;;;;;13.55;100.00;101107.28;5051978;28;20082;-73
2022/06/11 02:06:11;;;;;;;8.48;5.18;;;;;;;13.55;100.00;101112.56;5063105;28;20071;-73
2022/06/11 02:08:59;;;;;;;8.98;4.60;;;;;;;13.48;100.00;101105.91;5053797;28;20503;-73
2022/06/11 02:11:27;;;;;;;9.57;5.20;;;;;;;13.43;100.00;101102.63;5042611;28;20025;-74
2022/06/11 02:14:14;;;;;;;18.25;5.53;;;;;;;13.43;100.00;101099.97;5053769;28;20033;-74
2022/06/11 02:16:45;;;;;;;9.02;5.20;;;;;;;13.41;100.00;101093.94;5050520;28;20071;-74
2022/06/11 02:19:15;;;;;;;8.07;4.88;;;;;;;13.39;100.00;101106.34;5051642;28;20032;-74
2022/06/11 02:21:47;;;;;;;7.20;5.32;;;;;;;13.10;100.00;101052.41;5063607;28;20039;-74
2022/06/11 02:24:29;;;;;;;6.38;4.72;;;;;;;13.36;100.00;101103.84;5045759;28;20032;-73
2022/06/11 02:26:58;;;;;;;6.38;5.32;;;;;;;13.27;100.00;101100.78;5076959;28;20041;-73
2022/06/11 02:29:25;;;;;;;10.05;5.15;;;;;;;13.31;100.00;101104.13;5050628;28;20044;-73
2022/06/11 02:31:57;;;;;;;8.15;5.57;;;;;;;13.28;100.00;101110.38;5051325;28;20032;-73
2022/06/11 02:34:25;;;;;;;14.68;4.78;;;;;;;13.28;100.00;101107.72;5051961;28;20116;-73
2022/06/11 02:37:09;;;;;;;8.40;5.82;;;;;;;13.29;100.00;101117.38;5055924;28;20364;-73
2022/06/11 02:39:38;;;;;;;8.73;5.57;;;;;;;13.28;100.00;101105.09;5051456;28;20041;-73
2022/06/11 02:42:06;;;;;;;7.45;4.93;;;;;;;13.27;100.00;101108.69;5050652;28;20492;-73
2022/06/11 02:44:32;;;;;;;9.73;6.22;;;;;;;13.35;100.00;101115.38;5050940;28;20490;-73
2022/06/11 02:46:57;;;;;;;9.75;5.70;;;;;;;12.93;100.00;101034.75;5066739;28;20028;-72
2022/06/11 02:49:29;;;;;;;9.70;6.35;;;;;;;13.34;100.00;101103.09;5049718;28;20025;-73
2022/06/11 02:51:57;;;;;;;8.88;5.80;;;;;;;13.39;100.00;101106.34;5050431;28;20029;-73
2022/06/11 02:54:25;;;;;;;8.48;5.78;;;;;;;13.42;100.00;101100.94;5057107;28;20471;-73
2022/06/11 02:56:52;;;;;;;8.75;5.35;;;;;;;13.46;100.00;101107.75;5064434;28;20029;-74
2022/06/11 02:59:17;;;;;;;7.40;5.05;;;;;;;13.41;100.00;101107.13;5055512;28;20036;-73
2022/06/11 03:01:43;;;;;;;10.13;6.13;;;;;;;13.55;100.00;101123.13;5053599;28;20025;-73
2022/06/11 03:04:09;;;;;;;10.85;6.18;;;;;;;13.51;100.00;101111.88;5058819;28;20386;-73
2022/06/11 03:06:38;;;;;;;9.10;6.03;;;;;;;13.64;100.00;101130.59;5054618;28;20037;-73
2022/06/11 03:09:04;;;;;;;8.15;5.57;;;;;;;13.62;100.00;101121.91;5038103;28;20182;-73
2022/06/11 03:11:29;;;;;;;12.48;5.18;;;;;;;13.72;100.00;101131.06;5054476;28;20503;-73
2022/06/11 03:13:55;;;;;;;11.85;6.30;;;;;;;13.69;100.00;101118.84;5055178;28;20391;-73
2022/06/11 03:16:20;;;;;;;9.30;6.75;;;;;;;13.76;100.00;101122.03;5051931;28;20094;-73
2022/06/11 03:18:46;;;;;;;10.50;6.68;;;;;;;13.83;100.00;101133.97;5053762;28;20025;-72
2022/06/11 03:21:12;;;;;;;8.73;6.28;;;;;;;13.90;100.00;101135.38;5048781;28;20091;-73
2022/06/11 03:23:38;;;;;;;7.85;6.10;;;;;;;13.92;100.00;101128.25;5054930;28;20029;-72
2022/06/11 03:26:06;;;;;;;16.15;7.15;;;;;;;13.91;100.00;101115.94;5068566;28;20031;-73
2022/06/11 03:28:32;;;;;;;17.30;7.70;;;;;;;13.89;100.00;101107.22;5026387;28;20850;-73
2022/06/11 03:30:58;;;;;;;9.00;7.40;;;;;;;14.07;100.00;101127.41;5032931;28;20040;-74
2022/06/11 03:33:24;;;;;;;10.55;7.22;;;;;;;14.19;100.00;101142.63;5044544;28;20567;-74
2022/06/11 03:35:51;;;;;;;10.20;6.50;;;;;;;14.20;100.00;101139.03;5043086;28;20048;-76
2022/06/11 03:38:17;;;;;;;7.55;6.53;;;;;;;14.32;100.00;101153.41;5049132;28;20066;-75
2022/06/11 03:40:43;;;;;;;8.27;6.63;;;;;;;14.25;100.00;101123.81;5067879;28;20028;-75
2022/06/11 03:43:08;;;;;;;10.38;6.80;;;;;;;14.39;100.00;101140.75;5055481;28;20017;-75
2022/06/11 03:45:34;;;;;;;9.95;7.07;;;;;;;14.40;100.00;101147.75;5046188;28;20036;-75
2022/06/11 03:48:00;;;;;;;8.90;6.80;;;;;;;14.48;100.00;101143.75;5055201;28;20047;-75
2022/06/11 03:50:29;;;;;;;9.45;7.20;;;;;;;14.47;100.00;101135.88;5052902;28;20029;-74
2022/06/11 03:52:55;;;;;;;10.98;7.38;;;;;;;14.53;100.00;101140.84;5042555;28;20024;-74
2022/06/11 03:55:21;;;;;;;9.13;6.70;;;;;;;14.62;100.00;101150.94;5070348;28;20402;-74
2022/06/11 03:57:47;;;;;;;14.02;6.82;;;;;;;14.64;100.00;101160.47;5040868;28;20024;-75
2022/06/11 04:00:15;;;;;;;9.95;7.35;;;;;;;14.66;100.00;101153.31;5060291;28;20020;-75
2022/06/11 04:02:40;;;;;;;8.32;6.75;;;;;;;14.64;100.00;101147.25;5056844;28;20036;-75
2022/06/11 04:05:07;;;;;;;12.88;7.40;;;;;;;14.79;100.00;101150.84;5043432;28;20021;-75
2022/06/11 04:07:33;;;;;;;9.45;6.75;;;;;;;14.80;100.00;101149.91;5066081;28;20040;-75
2022/06/11 04:09:58;;;;;;;7.95;6.70;;;;;;;14.74;100.00;101142.28;5072381;28;20028;-75
2022/06/11 04:12:24;;;;;;;8.60;7.10;;;;;;;14.76;100.00;101137.78;5062407;28;20029;-75
2022/06/11 04:14:50;;;;;;;8.77;7.32;;;;;;;14.96;100.00;101160.50;5054504;28;20123;-75
2022/06/11 04:17:18;;;;;;;15.48;8.23;;;;;;;14.95;100.00;101157.00;5062513;28;20403;-74
2022/06/11 04:19:46;;;;;;;14.95;7.95;;;;;;;14.98;100.00;101164.75;5059107;28;20025;-74
2022/06/11 04:22:12;;;;;;;14.00;8.57;;;;;;;15.10;100.00;101176.47;5054409;28;20032;-74
2022/06/11 04:24:37;;;;;;;11.25;7.40;;;;;;;15.12;100.00;101170.13;5053931;28;20035;-75
2022/06/11 04:27:06;;;;;;;14.98;7.40;;;;;;;15.10;100.00;101164.09;5052107;28;20033;-74
2022/06/11 04:29:34;;;;;;;10.80;7.40;;;;;;;15.15;100.00;101161.16;5057727;28;20049;-74
2022/06/11 04:32:01;;;;;;;15.95;7.05;;;;;;;15.21;100.00;101169.59;5051025;28;20074;-75
2022/06/11 04:34:27;;;;;;;10.23;7.25;;;;;;;15.32;100.00;101185.75;5050497;28;20029;-74
2022/06/11 04:36:52;;;;;;;20.23;7.32;;;;;;;15.29;100.00;101169.16;5052076;28;20032;-74
2022/06/11 04:39:21;;;;;;;14.23;6.97;;;;;;;15.35;100.00;101174.97;5039569;28;20106;-74
2022/06/11 04:41:46;;;;;;;13.27;6.78;;;;;;;15.48;100.00;101191.03;5063573;28;20575;-74
2022/06/11 04:44:13;;;;;;;9.50;5.78;;;;;;;15.22;100.00;101131.59;5054296;28;20021;-74
2022/06/11 04:46:38;;;;;;;8.05;6.35;;;;;;;15.50;100.00;101172.41;5058729;28;20025;-74
2022/06/11 04:49:04;;;;;;;9.15;6.38;;;;;;;15.60;100.00;101195.63;5069081;28;20509;-74
2022/06/11 04:51:30;;;;;;;11.73;6.15;;;;;;;15.53;100.00;101173.09;5047438;28;20025;-74
2022/06/11 04:53:55;;;;;;;10.27;6.00;;;;;;;15.68;100.00;101188.06;5065784;28;20024;-74
2022/06/11 04:56:23;;;;;;;10.82;5.97;;;;;;;15.62;100.00;101175.19;5042390;28;21791;-74
2022/06/11 04:58:49;;;;;;;13.68;6.05;;;;;;;15.71;100.00;101179.13;5059859;28;20107;-72
2022/06/11 05:01:14;;;;;;;10.23;5.93;;;;;;;15.79;100.00;101182.16;5055457;28;20184;-73
2022/06/11 05:03:41;;;;;;;6.60;4.78;;;;;;;15.68;100.00;101161.56;5043976;28;20025;-73
2022/06/11 05:06:06;;;;;;;9.98;5.20;;;;;;;15.82;100.00;101181.97;5035278;28;20037;-73
2022/06/11 05:08:32;;;;;;;7.10;4.70;;;;;;;15.81;100.00;101170.53;5043818;28;20037;-73
2022/06/11 05:10:58;;;;;;;5.68;4.50;;;;;;;15.94;100.00;101189.19;5038471;28;20041;-73
2022/06/11 05:13:24;;;;;;;9.15;5.40;;;;;;;15.93;100.00;101176.03;5035674;28;20029;-73
2022/06/11 05:15:51;;;;;;;8.75;4.93;;;;;;;15.99;100.00;101180.94;5036130;28;20024;-73
2022/06/11 05:18:17;;;;;;;10.05;4.85;;;;;;;16.03;100.00;101185.13;5052261;28;20067;-73
2022/06/11 05:20:43;;;;;;;5.85;4.10;;;;;;;16.09;100.00;101185.63;5037203;28;20045;-73
2022/06/11 05:23:09;;;;;;;16.90;5.25;;;;;;;16.09;100.00;101182.97;5038805;28;20025;-72
2022/06/11 05:25:36;;;;;;;7.50;4.43;;;;;;;16.15;100.00;101187.91;5056069;28;20099;-73
2022/06/11 05:28:02;;;;;;;6.30;4.55;;;;;;;16.15;100.00;101182.63;5038120;28;20116;-73
2022/06/11 05:30:30;;;;;;;7.90;4.85;;;;;;;16.23;100.00;101185.63;5034904;28;20461;-73
2022/06/11 05:32:56;;;;;;;11.43;4.90;;;;;;;16.19;100.00;101176.16;5036364;28;20034;-73
2022/06/11 05:35:25;;;;;;;5.90;4.25;;;;;;;16.32;100.00;101194.84;5042103;28;20058;-74
2022/06/11 05:37:53;;;;;;;6.70;4.65;;;;;;;16.38;100.00;101194.47;5051965;28;20148;-74
2022/06/11 05:40:22;;;;;;;6.28;4.65;;;;;;;16.42;100.00;101195.13;5050120;28;20029;-73
2022/06/11 05:42:47;;;;;;;8.93;4.60;;;;;;;16.40;100.00;101181.09;5035817;28;20041;-74
2022/06/11 05:45:17;;;;;;;6.90;4.68;;;;;;;16.55;100.00;101190.78;5054365;28;20534;-73
2022/06/11 05:47:44;;;;;;;6.28;4.25;;;;;;;16.59;100.00;101187.00;5095474;28;20033;-74
2022/06/11 05:50:11;;;;;;;6.15;4.03;;;;;;;16.63;100.00;101185.84;5055061;28;20028;-74
2022/06/11 05:52:38;;;;;;;8.60;4.18;;;;;;;16.72;100.00;101195.91;5066829;28;20017;-73
2022/06/11 05:55:04;;;;;;;6.25;3.83;;;;;;;16.73;100.00;101179.00;5040112;28;20527;-74
2022/06/11 05:57:30;;;;;;;6.78;3.53;;;;;;;16.85;100.00;101188.88;5051797;28;20379;-74
2022/06/11 05:59:59;;;;;;;4.93;3.25;;;;;;;16.88;100.00;101196.63;5042942;28;20040;-73
2022/06/11 06:02:26;;;;;;;8.48;3.70;;;;;;;16.95;100.00;101205.06;5051849;28;20412;-74
2022/06/11 06:04:52;;;;;;;6.85;3.70;;;;;;;16.97;100.00;101206.66;5062001;28;20093;-74
2022/06/11 06:07:17;;;;;;;5.35;3.60;;;;;;;16.83;100.00;101182.81;5055943;28;20025;-74
2022/06/11 06:09:42;;;;;;;5.85;3.42;;;;;;;17.01;100.00;101207.31;5058692;28;20453;-73
2022/06/11 06:12:08;;;;;;;4.97;3.05;;;;;;;16.98;100.00;101205.72;5069105;28;20028;-73
2022/06/11 06:14:34;;;;;;;9.63;3.83;;;;;;;16.95;100.00;101190.00;5057050;28;20089;-72
2022/06/11 06:16:59;;;;;;;5.97;3.25;;;;;;;16.98;100.00;101200.41;5067886;28;20545;-72
2022/06/11 06:19:24;;;;;;;10.50;3.53;;;;;;;16.97;100.00;101201.34;5047226;28;20027;-72
2022/06/11 06:21:50;;;;;;;7.97;3.08;;;;;;;16.95;100.00;101205.94;5049745;28;20024;-72
2022/06/11 06:24:15;;;;;;;13.10;4.03;;;;;;;17.04;100.00;101221.25;5065445;28;20073;-72
2022/06/11 06:26:41;;;;;;;7.82;3.67;;;;;;;17.14;100.00;101222.38;5066108;28;20021;-73
2022/06/11 06:29:06;;;;;;;6.47;3.22;;;;;;;17.32;100.00;101229.16;5050735;28;20078;-72
2022/06/11 06:31:32;;;;;;;5.40;2.40;;;;;;;17.25;100.00;101198.63;5051258;28;20112;-72
2022/06/11 06:34:01;;;;;;;6.25;3.13;;;;;;;17.55;100.00;101219.69;5050799;28;20029;-74
2022/06/11 06:36:31;;;;;;;7.68;3.10;;;;;;;17.79;100.00;101235.84;5050151;28;20059;-72
2022/06/11 06:38:57;;;;;;;6.05;3.10;;;;;;;17.85;100.00;101230.13;5057257;28;20044;-73
2022/06/11 06:41:23;;;;;;;7.70;2.55;;;;;;;17.87;100.00;101233.53;5058274;28;20772;-73
2022/06/11 06:43:49;;;;;;;6.03;3.22;;;;;;;17.84;100.00;101215.13;5024234;28;20035;-74
2022/06/11 06:46:15;;;;;;;7.70;3.28;;;;;;;17.95;100.00;101225.88;5019675;28;20041;-73
2022/06/11 06:48:42;;;;;;;19.27;3.22;;;;;;;17.98;100.00;101236.31;5043703;28;20390;-73
2022/06/11 06:51:07;;;;;;;4.38;2.55;;;;;;;17.83;100.00;101208.09;5045564;28;21581;-74
2022/06/11 06:53:33;;;;;;;6.82;2.90;;;;;;;17.80;100.00;101211.84;5038447;28;20029;-73
2022/06/11 06:55:58;;;;;;;10.60;3.03;;;;;;;17.91;100.00;101236.84;5059609;28;20066;-73
2022/06/11 06:58:24;;;;;;;13.15;3.00;;;;;;;17.81;100.00;101239.28;5057421;28;20037;-72
2022/06/11 07:00:50;;;;;;;4.65;2.58;;;;;;;17.82;100.00;101243.63;5053211;28;20020;-73
2022/06/11 07:03:16;;;;;;;7.40;3.03;;;;;;;17.80;100.00;101237.56;5055464;28;20020;-73
2022/06/11 07:05:42;;;;;;;5.50;2.70;;;;;;;17.86;100.00;101250.44;5046905;28;20542;-73
2022/06/11 07:08:08;;;;;;;6.32;2.90;;;;;;;17.87;100.00;101228.22;5055239;28;20028;-73
2022/06/11 07:10:34;;;;;;;5.10;2.45;;;;;;;17.85;100.00;101208.84;5062594;28;20109;-74
2022/06/11 07:13:00;;;;;;;12.02;2.83;;;;;;;18.12;100.00;101246.88;5053587;28;21639;-73
2022/06/11 07:15:26;;;;;;;12.38;3.35;;;;;;;18.20;100.00;101252.53;5044924;28;20120;-74
2022/06/11 07:18:08;;;;;;;8.38;3.08;;;;;;;18.24;100.00;101235.41;5054334;28;20025;-74
2022/06/11 07:20:34;;;;;;;6.85;3.17;;;;;;;18.32;100.00;101251.69;5063043;28;20089;-74
2022/06/11 07:23:04;;;;;;;10.43;3.42;;;;;;;18.25;100.00;101223.78;5050542;28;20108;-74
2022/06/11 07:25:29;;;;;;;5.80;2.88;;;;;;;18.18;100.00;101227.81;5059198;28;20067;-73
2022/06/11 07:27:59;;;;;;;6.03;2.80;;;;;;;18.26;100.00;101245.94;5055492;28;20070;-74
2022/06/11 07:30:26;;;;;;;5.85;2.45;;;;;;;18.31;100.00;101241.16;5058130;28;20033;-73
2022/06/11 07:32:55;;;;;;;6.38;2.95;;;;;;;18.48;100.00;101240.84;5070345;28;20041;-74
2022/06/11 07:35:21;;;;;;;7.72;2.90;;;;;;;18.60;100.00;101240.03;5050393;28;20021;-73
2022/06/11 07:37:48;;;;;;;6.78;3.03;;;;;;;18.70;100.00;101248.22;5049967;28;20035;-73
2022/06/11 07:40:14;;;;;;;5.10;2.63;;;;;;;18.63;100.00;101244.28;5052252;28;20497;-74
2022/06/11 07:42:40;;;;;;;5.40;2.60;;;;;;;18.62;100.00;101248.72;5054508;28;20025;-73
2022/06/11 07:45:06;;;;;;;7.75;2.40;;;;;;;18.56;100.00;101258.97;5037154;28;20025;-74
2022/06/11 07:50:16;;;;;;;4.47;2.50;;;;;;;18.39;100.00;101257.44;5069487;28;20035;-73
2022/06/11 07:52:41;;;;;;;5.18;2.30;;;;;;;18.44;100.00;101252.66;5072971;28;20021;-73
2022/06/11 07:55:08;;;;;;;10.57;3.28;;;;;;;18.41;100.00;101262.66;5049419;28;20072;-73
2022/06/11 07:57:34;;;;;;;10.73;2.50;;;;;;;18.27;100.00;101245.84;5058966;28;20444;-73
2022/06/11 07:59:59;;;;;;;6.93;2.80;;;;;;;18.32;100.00;101245.50;5064357;28;20095;-75
2022/06/11 08:02:25;;;;;;;9.35;3.22;;;;;;;18.36;100.00;101252.34;5049979;28;20021;-74
2022/06/11 08:04:51;;;;;;;7.10;2.92;;;;;;;18.46;100.00;101263.19;5061040;28;20075;-74
2022/06/11 08:07:16;;;;;;;5.82;2.83;;;;;;;18.42;100.00;101245.75;5048742;28;20028;-74
2022/06/11 08:09:41;;;;;;;6.40;2.88;;;;;;;18.50;100.00;101270.00;5071592;28;20056;-73
2022/06/11 08:12:07;;;;;;;4.45;2.78;;;;;;;18.41;100.00;101252.03;5070362;28;20031;-74
2022/06/11 08:14:32;;;;;;;7.00;2.95;;;;;;;18.38;100.00;101240.59;5066603;28;20051;-74
2022/06/11 08:16:58;;;;;;;6.35;2.50;;;;;;;18.50;100.00;101254.03;5076828;28;20140;-74
2022/06/11 08:19:23;;;;;;;6.75;2.70;;;;;;;18.64;100.00;101268.13;5055530;28;20025;-75
2022/06/11 08:21:49;;;;;;;5.07;2.45;;;;;;;18.70;100.00;101273.03;5043266;28;20033;-75
2022/06/11 08:24:14;;;;;;;9.70;2.60;;;;;;;18.73;100.00;101272.81;5056392;28;20060;-74
2022/06/11 08:26:39;;;;;;;9.55;2.85;;;;;;;18.62;100.00;101269.22;5057957;28;20486;-74
2022/06/11 08:29:05;;;;;;;7.43;2.63;;;;;;;18.54;100.00;101274.19;5072118;28;20028;-73
2022/06/11 08:31:30;;;;;;;4.22;1.95;;;;;;;18.55;100.00;101274.13;5054192;28;20032;-74
2022/06/11 08:33:55;;;;;;;5.95;2.60;;;;;;;18.52;100.00;101262.81;5042810;28;20037;-73
2022/06/11 08:36:21;;;;;;;7.70;2.63;;;;;;;18.59;100.00;101280.06;5038819;28;20430;-72
2022/06/11 08:38:47;;;;;;;9.27;2.83;;;;;;;18.68;100.00;101284.75;5057916;28;20029;-72
2022/06/11 08:41:16;;;;;;;4.75;2.35;;;;;;;18.73;100.00;101285.28;5057414;28;20028;-74
2022/06/11 08:43:49;;;;;;;9.80;3.17;;;;;;;18.70;100.00;101270.38;5051080;28;20037;-74
2022/06/11 08:46:17;;;;;;;9.15;2.95;;;;;;;18.80;100.00;101283.88;5040938;28;20483;-75
2022/06/11 08:49:09;;;;;;;7.28;2.55;;;;;;;18.82;100.00;101281.97;5058851;28;20506;-75
2022/06/11 08:51:42;;;;;;;10.32;2.42;;;;;;;18.79;100.00;101287.53;5025407;28;20048;-74
2022/06/11 08:54:11;;;;;;;7.72;2.80;;;;;;;18.65;100.00;101242.38;5070771;28;20428;-72
2022/06/11 08:57:10;;;;;;;6.68;2.92;;;;;;;19.00;100.00;101280.66;5055583;28;20025;-73
2022/06/11 08:59:44;;;;;;;10.65;3.60;;;;;;;19.17;100.00;101282.97;5047607;28;20048;-73
2022/06/11 09:02:21;;;;;;;14.60;3.35;;;;;;;19.26;100.00;101292.13;5064122;28;20055;-74
2022/06/11 09:05:17;;;;;;;11.43;3.30;;;;;;;19.22;100.00;101251.53;5062971;28;20060;-75
2022/06/11 09:07:43;;;;;;;6.05;3.22;;;;;;;19.36;100.00;101288.66;5004097;28;20033;-71
2022/06/11 09:10:23;;;;;;;5.15;2.60;;;;;;;19.33;100.00;101286.22;5052072;28;20479;-66
2022/06/11 09:13:19;;;;;;;11.18;3.25;;;;;;;19.34;100.00;101295.09;5040339;28;20061;-74
2022/06/11 09:15:56;;;;;;;10.52;3.05;;;;;;;19.25;100.00;101287.75;5043525;28;20072;-75
2022/06/11 09:18:28;;;;;;;14.45;2.97;;;;;;;19.16;100.00;101275.09;5019711;28;20048;-73
2022/06/11 09:21:33;;;;;;;6.90;2.58;;;;;;;19.24;100.00;101286.91;5043681;28;20033;-70
2022/06/11 09:24:20;;;;;;;7.15;3.10;;;;;;;19.30;100.00;101288.28;5070790;28;20052;-75
2022/06/11 09:26:51;;;;;;;12.85;3.42;;;;;;;19.32;100.00;101265.03;5071250;28;20089;-74
2022/06/11 09:29:43;;;;;;;7.97;3.20;;;;;;;19.55;100.00;101288.22;5059381;28;20026;-73
2022/06/11 09:32:13;;;;;;;9.68;3.38;;;;;;;19.34;100.00;101229.31;5045838;28;20498;-73
2022/06/11 09:34:49;;;;;;;7.63;3.13;;;;;;;19.58;100.00;101268.47;5060959;28;20033;-74
2022/06/11 09:37:20;;;;;;;11.73;3.78;;;;;;;19.68;100.00;101282.84;5038670;28;20033;-74
2022/06/11 09:39:49;;;;;;;7.40;3.22;;;;;;;19.68;100.00;101286.38;5041960;28;20071;-73
2022/06/11 09:43:02;;;;;;;12.02;3.33;;;;;;;19.67;100.00;101297.16;5041228;28;20095;-73
2022/06/11 09:45:28;;;;;;;7.85;3.50;;;;;;;19.83;100.00;101292.38;5010068;28;20037;-74
2022/06/11 09:48:20;;;;;;;7.03;3.22;;;;;;;20.02;100.00;101297.19;5071426;28;20054;-74
2022/06/11 09:51:08;;;;;;;12.82;3.08;;;;;;;19.91;100.00;101278.50;5061504;28;20024;-74
2022/06/11 09:53:49;;;;;;;7.10;2.85;;;;;;;19.97;100.00;101283.34;5074949;28;20109;-74
2022/06/11 09:56:43;;;;;;;10.23;3.55;;;;;;;20.09;100.00;101283.28;5039130;28;20398;-73
2022/06/11 09:59:25;;;;;;;6.95;2.97;;;;;;;20.20;100.00;101275.31;5062650;28;20033;-73
2022/06/11 10:01:56;;;;;;;6.28;3.15;;;;;;;20.29;100.00;101273.78;5045281;28;20398;-71
2022/06/11 10:04:29;;;;;;;7.82;3.13;;;;;;;20.37;100.00;101276.72;5066712;28;20459;-73
2022/06/11 10:07:06;;;;;;;6.60;2.97;;;;;;;20.71;100.00;101272.28;5052811;28;20037;-73
2022/06/11 10:09:54;;;;;;;7.63;3.35;;;;;;;21.02;100.00;101276.88;5045414;28;20063;-70
2022/06/11 10:12:25;;;;;;;16.67;3.67;;;;;;;20.98;100.00;101270.09;5050081;28;20048;-73
2022/06/11 10:14:53;;;;;;;10.90;3.53;;;;;;;21.02;100.00;101274.22;5051618;28;20059;-74
2022/06/11 10:17:39;;;;;;;7.07;3.05;;;;;;;20.98;100.00;101279.94;5051553;28;20020;-74
2022/06/11 10:20:42;;;;;;;9.43;3.67;;;;;;;20.72;100.00;101272.13;5049994;28;20371;-73
2022/06/11 10:23:31;;;;;;;9.05;3.20;;;;;;;20.65;100.00;101286.13;5050661;28;20462;-74
2022/06/11 10:26:08;;;;;;;8.15;3.00;;;;;;;20.57;100.00;101269.84;5062796;28;20024;-73
2022/06/11 10:28:37;;;;;;;6.88;3.05;;;;;;;20.67;100.00;101282.34;5057555;28;20021;-73
2022/06/11 10:31:12;;;;;;;6.82;2.88;;;;;;;20.72;100.00;101287.31;5043002;28;20026;-74
2022/06/11 10:33:59;;;;;;;10.23;2.63;;;;;;;20.77;100.00;101274.47;5063277;28;20030;-74
2022/06/11 10:36:31;;;;;;;5.43;2.65;;;;;;;20.83;100.00;101273.97;5058440;28;20070;-73
2022/06/11 10:39:11;;;;;;;9.98;3.10;;;;;;;20.79;100.00;101277.84;5060991;28;20028;-72
2022/06/11 10:42:03;;;;;;;6.00;2.65;;;;;;;20.79;100.00;101264.50;5057546;28;20095;-73
2022/06/11 10:44:40;;;;;;;6.63;2.63;;;;;;;20.89;100.00;101276.16;5083898;28;20107;-73
2022/06/11 10:47:37;;;;;;;5.00;2.10;;;;;;;20.90;100.00;101269.84;5064614;28;20021;-74
2022/06/11 10:50:07;;;;;;;7.28;3.03;;;;;;;21.02;100.00;101274.22;5050765;28;20079;-72
2022/06/11 10:52:45;;;;;;;8.10;3.03;;;;;;;21.02;100.00;101252.81;5066317;28;20029;-73
2022/06/11 10:55:18;;;;;;;6.38;2.40;;;;;;;21.11;100.00;101262.84;5047918;28;20030;-73
2022/06/11 10:57:47;;;;;;;6.50;2.88;;;;;;;21.11;100.00;101267.31;5043016;28;20071;-73
2022/06/11 11:00:21;;;;;;;9.85;2.45;;;;;;;21.01;100.00;101269.84;5053455;28;20559;-72
2022/06/11 11:02:54;;;;;;;8.60;2.08;;;;;;;21.11;100.00;101251.28;5052978;28;20057;-72
2022/06/11 11:05:21;;;;;;;3.90;1.73;;;;;;;21.32;100.00;101266.47;5043979;28;20438;-71
2022/06/11 11:07:52;;;;;;;4.55;2.00;;;;;;;21.52;100.00;101255.94;5058037;28;20044;-72
2022/06/11 11:10:21;;;;;;;6.13;1.95;;;;;;;21.61;100.00;101253.34;5043404;28;20051;-73
2022/06/11 11:12:46;;;;;;;5.75;1.88;;;;;;;21.61;100.00;101229.28;5062844;28;20020;-72
2022/06/11 11:15:18;;;;;;;7.57;3.00;;;;;;;21.75;100.00;101230.81;5059012;28;20037;-72
2022/06/11 11:17:56;;;;;;;3.40;1.60;;;;;;;21.74;98.51;101223.75;5052086;28;20489;-72
2022/06/11 11:20:37;;;;;;;7.38;1.98;;;;;;;21.72;97.84;101252.47;5049804;28;20059;-71
2022/06/11 11:23:10;;;;;;;3.92;1.90;;;;;;;21.54;97.98;101249.50;5065802;28;20025;-70
2022/06/11 11:25:42;;;;;;;12.80;2.70;;;;;;;21.52;100.00;101235.41;5053060;28;20052;-73
2022/06/11 11:28:18;;;;;;;6.18;2.22;;;;;;;21.73;100.00;101249.66;5066113;28;20025;-71
2022/06/11 11:30:44;;;;;;;6.53;2.25;;;;;;;21.89;100.00;101239.44;5061493;28;20030;-71
2022/06/11 11:33:25;;;;;;;9.13;2.30;;;;;;;22.36;100.00;101226.50;5048914;28;20067;-72
2022/06/11 11:36:25;;;;;;;4.78;1.98;;;;;;;22.89;100.00;101229.88;5052009;28;20497;-72
2022/06/11 11:39:12;;;;;;;6.07;1.95;;;;;;;23.14;93.02;101240.13;5037323;28;20170;-72